Cunningham, TN (37052)

12:38 PM CDT on August 30, 2015 (GMT -0500)
Clarksville, S. | | Change Station
CLOSE
Current Station
Personal Weather Station
Location: Clarksville, TN
Elevation: 465 ft
Nearby Weather Stations

Elev 465 ft 36.45 °N, 87.40 °W | Updated 4 minutes ago

Partly Cloudy
Partly Cloudy
78.8 °F
Feels Like 82 °F
N
0.0
Wind Variable Wind from East
Gusts 0.0 mph

Today
High -- | Low -- °F
--% Chance of Precip.
Yesterday
High -- | Low -- °F
Precip. -- in
6:19 AM 7:20 PM
Full, 99% visible
Pressure 30.10 in
Visibility 10.0 miles
Clouds Few 2500 ft
Scattered Clouds 12000 ft
Scattered Clouds 15000 ft
Heat Index 82 °F
Dew Point 71 °F
Humidity 76%
Rainfall 0.00 in
Snow Depth Not available.
UV 0.0 out of 12
Pollen 8.00 out of 12
Air Quality Not available.
Flu Activity Not available.
METAR KHOP 301658Z AUTO 16009KT 10SM FEW025 SCT120 SCT150 27/20 A3011 RMK AO2 SLP193 T02690203
Pressure 30.10 in
Visibility 10.0 miles
Clouds Few 2500 ft
Scattered Clouds 12000 ft
Scattered Clouds 15000 ft
Heat Index 82 °F
Dew Point 71 °F
Humidity 76%
Rainfall 0.00 in
Snow Depth Not available.
UV 0.0 out of 12
Pollen 8.00 out of 12
Air Quality Not available.
Flu Activity Not available.
METAR KHOP 301658Z AUTO 16009KT 10SM FEW025 SCT120 SCT150 27/20 A3011 RMK AO2 SLP193 T02690203

10-Day Weather Forecast

×

Almanac

Astronomy

Aug. 30, 2015 Rise Set
Actual Time
Civil Twilight
Nautical Twilight
Astronomical Twilight
Moon
Length of Visible Light
Length of Day
Tomorrow will be .
, % of the Moon is Illuminated

Today's Extremes

State Highs State Lows

Community

WunderPhotos

Upload Photos

1,851,014 photos uploaded!

WunderBlogs® & News

Nearby

Air Quality

  Air Quality AQ Index Pollutant
Not available.

Snow Depth

Station Depth Elevation

Earthquake Activity

City Distance Mag. Time & Date
Minimum magnitude displayed is 2.5.

Coastal Water Temperatures

Place Temperature

Stations

Nearby Weather Stations

Station Location Temp. Windchill Dew Point Humidity Wind Precip. Elev Updated Type